createdAt,value
2023-05-06T00:01:17.014Z,8.60
2023-05-06T00:03:45.111Z,9.68
2023-05-06T00:06:13.224Z,9.38
2023-05-06T00:08:41.114Z,8.70
2023-05-06T00:11:09.044Z,9.68
2023-05-06T00:13:37.551Z,8.37
2023-05-06T00:16:05.834Z,9.20
2023-05-06T00:18:35.335Z,9.63
2023-05-06T00:21:03.332Z,8.50
2023-05-06T00:23:31.317Z,9.65
2023-05-06T00:25:59.266Z,10.52
2023-05-06T00:28:27.228Z,8.40
2023-05-06T00:30:55.173Z,9.07
2023-05-06T00:33:23.006Z,9.40
2023-05-06T00:35:53.461Z,10.75
2023-05-06T00:38:21.338Z,9.18
2023-05-06T00:40:49.302Z,9.32
2023-05-06T00:43:17.213Z,11.95
2023-05-06T00:45:45.488Z,9.27
2023-05-06T00:48:13.603Z,11.00
2023-05-06T00:50:42.123Z,10.68
2023-05-06T00:53:11.831Z,10.60
2023-05-06T00:55:40.699Z,10.32
2023-05-06T00:58:09.423Z,9.80
2023-05-06T01:00:37.523Z,15.45
2023-05-06T01:03:05.850Z,11.45
2023-05-06T01:05:42.192Z,11.50
2023-05-06T01:08:16.913Z,11.27
2023-05-06T01:10:50.784Z,10.55
2023-05-06T01:13:25.903Z,11.73
2023-05-06T01:15:55.902Z,11.70
2023-05-06T01:18:26.470Z,10.27
2023-05-06T01:20:56.584Z,12.33
2023-05-06T01:23:25.930Z,11.77
2023-05-06T01:25:53.779Z,11.05
2023-05-06T01:28:21.850Z,12.70
2023-05-06T01:30:59.309Z,14.60
2023-05-06T01:33:38.131Z,12.30
2023-05-06T01:36:13.417Z,12.97
2023-05-06T01:38:51.567Z,13.77
2023-05-06T01:41:20.896Z,11.25
2023-05-06T01:43:50.357Z,11.40
2023-05-06T01:46:20.526Z,13.07
2023-05-06T01:48:51.166Z,13.30
2023-05-06T01:51:19.056Z,13.70
2023-05-06T01:53:48.296Z,13.05
2023-05-06T01:56:17.539Z,13.05
2023-05-06T01:58:45.424Z,11.75
2023-05-06T02:01:13.292Z,13.35
2023-05-06T02:03:41.288Z,12.00
2023-05-06T02:06:09.306Z,11.35
2023-05-06T02:08:37.160Z,10.95
2023-05-06T02:11:06.434Z,11.52
2023-05-06T02:13:34.453Z,13.05
2023-05-06T02:16:02.339Z,11.95
2023-05-06T02:18:30.323Z,13.63
2023-05-06T02:20:58.249Z,12.05
2023-05-06T02:23:26.158Z,18.02
2023-05-06T02:25:54.091Z,11.60
2023-05-06T02:28:23.329Z,13.77
2023-05-06T02:30:51.262Z,11.88
2023-05-06T02:33:19.159Z,11.73
2023-05-06T02:35:47.244Z,12.93
2023-05-06T02:38:15.161Z,12.55
2023-05-06T02:40:43.140Z,13.30
2023-05-06T02:43:11.065Z,10.48
2023-05-06T02:45:40.559Z,13.77
2023-05-06T02:48:08.549Z,12.40
2023-05-06T02:50:36.704Z,11.83
2023-05-06T02:53:04.595Z,13.53
2023-05-06T02:55:32.521Z,12.63
2023-05-06T02:58:00.451Z,11.35
2023-05-06T03:00:28.319Z,12.40
2023-05-06T03:02:57.646Z,12.45
2023-05-06T03:05:25.614Z,10.95
2023-05-06T03:07:53.554Z,12.45
2023-05-06T03:10:21.448Z,12.40
2023-05-06T03:12:49.321Z,11.10
2023-05-06T03:15:17.362Z,11.02
2023-05-06T03:17:45.271Z,11.70
2023-05-06T03:20:14.815Z,11.20
2023-05-06T03:22:42.846Z,10.82
2023-05-06T03:25:11.186Z,13.55
2023-05-06T03:27:39.259Z,13.13
2023-05-06T03:30:08.478Z,14.47
2023-05-06T03:32:36.679Z,11.38
2023-05-06T03:35:06.639Z,10.90
2023-05-06T03:37:35.873Z,10.30
2023-05-06T03:40:04.692Z,10.23
2023-05-06T03:42:32.581Z,11.27
2023-05-06T03:45:00.625Z,10.32
2023-05-06T03:47:28.502Z,10.68
2023-05-06T03:50:00.262Z,11.20
2023-05-06T03:52:28.304Z,11.10
2023-05-06T03:54:57.558Z,9.80
2023-05-06T03:57:25.606Z,10.30
2023-05-06T03:59:53.546Z,10.00
2023-05-06T04:02:21.528Z,11.35
2023-05-06T04:04:49.493Z,9.90
2023-05-06T04:07:17.384Z,9.05
2023-05-06T04:09:45.242Z,10.23
2023-05-06T04:12:14.495Z,8.60
2023-05-06T04:14:42.638Z,9.80
2023-05-06T04:17:10.511Z,8.80
2023-05-06T04:19:38.429Z,9.80
2023-05-06T04:22:06.396Z,9.50
2023-05-06T04:24:34.396Z,9.50
2023-05-06T04:27:03.478Z,9.40
2023-05-06T04:29:32.672Z,9.70
2023-05-06T04:32:00.673Z,9.90
2023-05-06T04:34:28.930Z,9.70
2023-05-06T04:36:58.221Z,9.57
2023-05-06T04:39:26.241Z,11.63
2023-05-06T04:41:54.358Z,9.80
2023-05-06T04:44:22.437Z,9.80
2023-05-06T04:46:51.693Z,9.93
2023-05-06T04:49:19.926Z,9.60
2023-05-06T04:51:47.873Z,9.90
2023-05-06T04:54:15.841Z,9.63
2023-05-06T04:56:43.710Z,8.80
2023-05-06T04:59:11.596Z,9.52
2023-05-06T05:01:39.512Z,9.90
2023-05-06T05:04:08.767Z,10.10
2023-05-06T05:06:36.785Z,9.60
2023-05-06T05:09:05.102Z,8.98
2023-05-06T05:11:33.072Z,9.33
2023-05-06T05:14:02.126Z,8.20
2023-05-06T05:16:30.800Z,8.98
2023-05-06T05:19:00.364Z,8.68
2023-05-06T05:21:31.623Z,10.50
2023-05-06T05:23:59.549Z,9.67
2023-05-06T05:26:27.482Z,9.02
2023-05-06T05:28:55.320Z,8.50
2023-05-06T05:31:23.338Z,8.80
2023-05-06T05:33:51.340Z,8.90
2023-05-06T05:36:19.337Z,8.82
2023-05-06T05:38:48.599Z,8.77
2023-05-06T05:41:17.586Z,8.80
2023-05-06T05:43:45.698Z,10.20
2023-05-06T05:46:14.123Z,12.25
2023-05-06T05:48:42.065Z,14.30
2023-05-06T05:51:09.994Z,13.63
2023-05-06T05:53:37.977Z,12.48
2023-05-06T05:56:07.919Z,13.23
2023-05-06T05:58:35.868Z,16.65
2023-05-06T06:01:04.149Z,16.75
2023-05-06T06:03:32.252Z,14.37
2023-05-06T06:06:00.430Z,16.67
2023-05-06T06:08:29.735Z,14.40
2023-05-06T06:10:57.984Z,14.60
2023-05-06T06:13:28.930Z,15.48
2023-05-06T06:15:57.601Z,15.52
2023-05-06T06:18:25.744Z,13.77
2023-05-06T06:20:53.763Z,15.52
2023-05-06T06:23:21.941Z,17.90
2023-05-06T06:25:49.787Z,16.63
2023-05-06T06:28:17.787Z,17.25
2023-05-06T06:30:47.039Z,17.65
2023-05-06T06:33:14.908Z,15.90
2023-05-06T06:35:42.731Z,19.17
2023-05-06T06:38:10.633Z,20.48
2023-05-06T06:40:38.623Z,19.27
2023-05-06T06:43:06.555Z,21.92
2023-05-06T06:45:34.485Z,20.20
2023-05-06T06:48:03.869Z,26.57
2023-05-06T06:50:31.782Z,26.63
2023-05-06T06:52:59.691Z,28.43
2023-05-06T06:55:27.580Z,26.15
2023-05-06T06:57:55.453Z,26.45
2023-05-06T07:00:23.448Z,26.08
2023-05-06T07:02:51.564Z,25.90
2023-05-06T07:05:21.081Z,25.73
2023-05-06T07:07:48.943Z,23.02
2023-05-06T07:10:16.913Z,27.17
2023-05-06T07:12:44.902Z,26.70
2023-05-06T07:15:13.251Z,25.02
2023-05-06T07:17:41.393Z,26.50
2023-05-06T07:20:10.637Z,23.93
2023-05-06T07:22:41.215Z,23.45
2023-05-06T07:25:10.175Z,23.58
2023-05-06T07:27:38.411Z,23.05
2023-05-06T07:30:08.065Z,23.20
2023-05-06T07:32:36.063Z,22.08
2023-05-06T07:35:05.761Z,21.85
2023-05-06T07:37:33.710Z,24.80
2023-05-06T07:40:03.002Z,24.30
2023-05-06T07:42:30.922Z,21.25
2023-05-06T07:44:58.813Z,22.35
2023-05-06T07:47:29.041Z,24.48
2023-05-06T07:49:57.905Z,26.35
2023-05-06T07:52:26.217Z,26.20
2023-05-06T07:54:54.356Z,29.50
2023-05-06T07:57:23.732Z,22.73
2023-05-06T07:59:53.021Z,23.50
2023-05-06T08:02:21.086Z,25.30
2023-05-06T08:04:50.950Z,29.10
2023-05-06T08:07:19.667Z,25.88
2023-05-06T08:09:47.574Z,27.67
2023-05-06T08:12:15.875Z,25.30
2023-05-06T08:14:45.470Z,23.90
2023-05-06T08:17:14.176Z,25.27
2023-05-06T08:19:42.155Z,24.02
2023-05-06T08:22:10.080Z,23.77
2023-05-06T08:24:38.091Z,27.25
2023-05-06T08:27:05.983Z,28.93
2023-05-06T08:29:33.988Z,21.75
2023-05-06T08:32:03.364Z,25.10
2023-05-06T08:34:31.571Z,21.90
2023-05-06T08:36:59.495Z,22.15
2023-05-06T08:39:27.937Z,25.33
2023-05-06T08:41:57.355Z,26.35
2023-05-06T08:44:26.680Z,23.63
2023-05-06T08:46:54.664Z,24.30
2023-05-06T08:49:24.233Z,26.45
2023-05-06T08:51:53.374Z,23.13
2023-05-06T08:54:22.761Z,23.90
2023-05-06T08:56:54.736Z,26.00
2023-05-06T08:59:25.794Z,25.00
2023-05-06T09:01:54.235Z,22.70
2023-05-06T09:04:23.718Z,20.65
2023-05-06T09:06:51.643Z,20.98
2023-05-06T09:09:19.593Z,20.95
2023-05-06T09:11:53.897Z,23.30
2023-05-06T09:14:22.705Z,22.38
2023-05-06T09:16:52.460Z,23.40
2023-05-06T09:19:21.990Z,19.60
2023-05-06T09:21:52.407Z,23.10
2023-05-06T09:24:21.337Z,22.00
2023-05-06T09:26:49.354Z,19.20
2023-05-06T09:29:17.293Z,15.20
2023-05-06T09:31:46.779Z,21.38
2023-05-06T09:34:15.543Z,19.65
2023-05-06T09:36:43.535Z,19.30
2023-05-06T09:39:12.761Z,18.20
2023-05-06T09:41:40.740Z,15.15
2023-05-06T09:44:08.683Z,19.13
2023-05-06T09:46:37.368Z,23.73
2023-05-06T09:49:05.773Z,20.42
2023-05-06T09:51:33.785Z,16.25
2023-05-06T09:54:02.187Z,16.65
2023-05-06T09:56:32.211Z,14.68
2023-05-06T09:59:04.197Z,17.17
2023-05-06T10:01:36.533Z,18.38
2023-05-06T10:04:09.268Z,19.67
2023-05-06T10:06:39.393Z,16.33
2023-05-06T10:09:09.113Z,19.17
2023-05-06T10:11:38.564Z,20.30
2023-05-06T10:14:07.761Z,20.45
2023-05-06T10:16:36.723Z,18.70
2023-05-06T10:19:06.879Z,26.17
2023-05-06T10:21:39.066Z,25.38
2023-05-06T10:24:09.173Z,22.40
2023-05-06T10:26:39.675Z,25.38
2023-05-06T10:29:11.044Z,20.55
2023-05-06T10:31:45.442Z,20.75
2023-05-06T10:34:13.613Z,19.98
2023-05-06T10:36:44.061Z,18.52
2023-05-06T10:39:14.212Z,19.25
2023-05-06T10:41:43.668Z,21.70
2023-05-06T10:44:12.907Z,23.35
2023-05-06T10:47:00.542Z,23.88
2023-05-06T10:49:29.103Z,24.67
2023-05-06T10:52:15.051Z,19.20
2023-05-06T10:54:51.162Z,22.83
2023-05-06T10:57:22.575Z,22.92
2023-05-06T10:59:50.683Z,24.97
2023-05-06T11:02:21.390Z,22.58
2023-05-06T11:04:53.628Z,22.75
2023-05-06T11:07:26.111Z,22.23
2023-05-06T11:09:58.425Z,24.70
2023-05-06T11:12:49.144Z,20.23
2023-05-06T11:15:27.953Z,22.58
2023-05-06T11:17:56.504Z,20.70
2023-05-06T11:20:26.287Z,23.90
2023-05-06T11:22:55.175Z,23.42
2023-05-06T11:25:41.242Z,21.80
2023-05-06T11:28:11.834Z,17.08
2023-05-06T11:30:42.662Z,15.85
2023-05-06T11:33:18.273Z,14.97
2023-05-06T11:35:46.385Z,13.35
2023-05-06T11:38:14.253Z,15.93
2023-05-06T11:40:42.911Z,14.00
2023-05-06T11:43:12.992Z,14.45
2023-05-06T11:45:45.100Z,12.52
2023-05-06T11:48:13.512Z,11.70
2023-05-06T11:50:45.603Z,14.18
2023-05-06T11:53:13.628Z,12.98
2023-05-06T11:55:41.629Z,14.35
2023-05-06T11:58:16.398Z,14.10
2023-05-06T12:00:51.425Z,15.40
2023-05-06T12:03:19.888Z,12.40
2023-05-06T12:05:48.752Z,14.30
2023-05-06T12:08:26.821Z,11.85
2023-05-06T12:10:56.982Z,13.33
2023-05-06T12:13:26.394Z,11.55
2023-05-06T12:15:55.827Z,10.07
2023-05-06T12:18:24.546Z,10.25
2023-05-06T12:20:55.031Z,10.48
2023-05-06T12:23:23.109Z,9.45
2023-05-06T12:26:03.884Z,6.55
2023-05-06T12:28:34.463Z,8.47
2023-05-06T12:31:02.438Z,8.57
2023-05-06T12:33:44.562Z,10.88
2023-05-06T12:36:12.880Z,9.57
2023-05-06T12:38:50.252Z,9.50
2023-05-06T12:41:18.138Z,11.50
2023-05-06T12:43:47.492Z,7.90
2023-05-06T12:46:16.328Z,9.70
2023-05-06T12:48:57.818Z,10.73
2023-05-06T12:51:26.607Z,8.65
2023-05-06T12:53:55.007Z,8.10
2023-05-06T12:56:23.545Z,8.23
2023-05-06T12:58:59.959Z,8.48
2023-05-06T13:01:28.018Z,15.10
2023-05-06T13:03:57.446Z,13.77
2023-05-06T13:06:25.677Z,11.05
2023-05-06T13:08:53.601Z,9.75
2023-05-06T13:11:22.236Z,10.93
2023-05-06T13:13:50.246Z,13.32
2023-05-06T13:16:19.672Z,10.93
2023-05-06T13:18:47.726Z,14.05
2023-05-06T13:21:17.590Z,10.35
2023-05-06T13:23:47.975Z,14.18
2023-05-06T13:26:17.213Z,8.95
2023-05-06T13:28:45.839Z,10.75
2023-05-06T13:31:13.853Z,9.95
2023-05-06T13:33:43.242Z,13.85
2023-05-06T13:36:11.295Z,12.35
2023-05-06T13:38:39.237Z,10.40
2023-05-06T13:41:08.015Z,11.73
2023-05-06T13:43:35.861Z,9.50
2023-05-06T13:46:03.901Z,10.38
2023-05-06T13:48:34.067Z,10.53
2023-05-06T13:51:03.555Z,11.07
2023-05-06T13:53:31.491Z,11.90
2023-05-06T13:55:59.444Z,9.50
2023-05-06T13:58:27.351Z,11.90
2023-05-06T14:00:55.292Z,10.48
2023-05-06T14:03:23.205Z,8.55
2023-05-06T14:05:51.245Z,11.57
2023-05-06T14:08:20.490Z,9.55
2023-05-06T14:10:48.464Z,12.20
2023-05-06T14:13:16.492Z,10.50
2023-05-06T14:15:44.553Z,11.73
2023-05-06T14:18:12.485Z,7.57
2023-05-06T14:20:40.520Z,9.50
2023-05-06T14:23:08.468Z,12.73
2023-05-06T14:25:37.768Z,8.90
2023-05-06T14:28:05.723Z,11.43
2023-05-06T14:30:34.341Z,8.82
2023-05-06T14:33:02.376Z,9.63
2023-05-06T14:35:30.365Z,9.73
2023-05-06T14:37:58.436Z,9.02
2023-05-06T14:40:26.624Z,7.65
2023-05-06T14:42:55.959Z,9.05
2023-05-06T14:45:23.882Z,5.88
2023-05-06T14:47:52.177Z,7.57
2023-05-06T14:50:20.129Z,5.25
2023-05-06T14:52:48.209Z,6.80
2023-05-06T14:55:16.320Z,7.13
2023-05-06T14:57:44.204Z,6.00
2023-05-06T15:00:14.919Z,3.50
2023-05-06T15:02:43.144Z,6.70
2023-05-06T15:05:12.307Z,7.82
2023-05-06T15:07:40.674Z,7.95
2023-05-06T15:10:09.118Z,5.75
2023-05-06T15:12:37.415Z,6.07
2023-05-06T15:15:06.701Z,7.20
2023-05-06T15:17:36.364Z,5.65
2023-05-06T15:20:06.718Z,7.45
2023-05-06T15:22:34.964Z,14.80
2023-05-06T15:25:03.861Z,10.25
2023-05-06T15:27:31.893Z,14.27
2023-05-06T15:30:04.136Z,7.15
2023-05-06T15:32:32.393Z,8.15
2023-05-06T15:35:04.874Z,6.78
2023-05-06T15:37:33.495Z,6.43
2023-05-06T15:40:01.548Z,6.70
2023-05-06T15:42:30.372Z,8.20
2023-05-06T15:44:59.508Z,5.90
2023-05-06T15:47:27.496Z,6.68
2023-05-06T15:49:55.458Z,7.38
2023-05-06T15:52:25.982Z,5.32
2023-05-06T15:54:58.936Z,7.47
2023-05-06T15:57:30.070Z,5.88
2023-05-06T15:59:58.433Z,5.40
2023-05-06T16:02:27.500Z,4.07
2023-05-06T16:04:55.855Z,6.93
2023-05-06T16:07:25.441Z,4.57
2023-05-06T16:09:53.321Z,5.85
2023-05-06T16:12:21.190Z,8.38
2023-05-06T16:14:49.046Z,7.43
2023-05-06T16:17:16.911Z,5.53
2023-05-06T16:19:44.762Z,3.40
2023-05-06T16:22:12.616Z,6.75
2023-05-06T16:24:41.772Z,12.63
2023-05-06T16:27:09.672Z,15.70
2023-05-06T16:29:37.551Z,19.60
2023-05-06T16:32:05.940Z,21.83
2023-05-06T16:36:47.883Z,20.27
2023-05-06T16:39:15.860Z,17.17
2023-05-06T16:41:43.788Z,16.85
2023-05-06T16:44:11.672Z,16.42
2023-05-06T16:46:39.669Z,15.77
2023-05-06T16:49:07.599Z,14.48
2023-05-06T16:51:35.507Z,13.33
2023-05-06T16:54:04.969Z,15.18
2023-05-06T16:56:47.928Z,11.85
2023-05-06T16:59:22.007Z,12.23
2023-05-06T17:01:50.791Z,17.70
2023-05-06T17:04:18.715Z,14.73
2023-05-06T17:06:46.568Z,15.83
2023-05-06T17:09:16.386Z,19.38
2023-05-06T17:11:44.552Z,19.03
2023-05-06T17:14:13.710Z,16.52
2023-05-06T17:16:43.108Z,16.52
2023-05-06T17:19:11.942Z,16.70
2023-05-06T17:21:39.841Z,17.75
2023-05-06T17:24:08.433Z,16.73
2023-05-06T17:26:38.659Z,17.75
2023-05-06T17:29:07.068Z,15.70
2023-05-06T17:31:34.977Z,16.67
2023-05-06T17:34:03.772Z,12.95
2023-05-06T17:36:31.661Z,11.45
2023-05-06T17:39:03.735Z,12.43
2023-05-06T17:41:31.647Z,13.27
2023-05-06T17:44:01.071Z,14.35
2023-05-06T17:46:29.054Z,11.32
2023-05-06T17:48:56.971Z,13.10
2023-05-06T17:51:24.933Z,12.52
2023-05-06T17:53:53.142Z,11.68
2023-05-06T17:56:21.302Z,13.40
2023-05-06T17:58:49.235Z,9.33
2023-05-06T18:01:18.565Z,13.40
2023-05-06T18:03:46.582Z,13.13
2023-05-06T18:06:14.602Z,11.40
2023-05-06T18:08:42.484Z,10.80
2023-05-06T18:11:10.975Z,13.65
2023-05-06T18:13:39.129Z,15.90
2023-05-06T18:16:07.699Z,11.65
2023-05-06T18:18:36.971Z,12.52
2023-05-06T18:21:04.969Z,9.35
2023-05-06T18:23:33.297Z,9.68
2023-05-06T18:26:01.341Z,10.90
2023-05-06T18:28:29.269Z,12.65
2023-05-06T18:30:57.156Z,10.82
2023-05-06T18:33:25.156Z,13.55
2023-05-06T18:35:54.538Z,10.73
2023-05-06T18:38:24.311Z,11.40
2023-05-06T18:40:52.240Z,9.75
2023-05-06T18:43:20.243Z,12.95
2023-05-06T18:45:48.254Z,11.30
2023-05-06T18:48:16.349Z,11.38
2023-05-06T18:50:44.270Z,11.60
2023-05-06T18:53:13.469Z,10.43
2023-05-06T18:55:41.319Z,12.25
2023-05-06T18:58:09.280Z,9.70
2023-05-06T19:00:37.173Z,9.02
2023-05-06T19:03:05.317Z,13.77
2023-05-06T19:05:33.316Z,11.32
2023-05-06T19:08:01.193Z,12.05
2023-05-06T19:10:30.693Z,13.17
2023-05-06T19:12:58.725Z,14.30
2023-05-06T19:15:27.011Z,14.35
2023-05-06T19:17:54.943Z,15.05
2023-05-06T19:20:22.837Z,17.42
2023-05-06T19:22:50.787Z,18.38
2023-05-06T19:25:18.835Z,19.58
2023-05-06T19:27:48.076Z,20.80
2023-05-06T19:30:16.277Z,20.43
2023-05-06T19:32:44.476Z,19.88
2023-05-06T19:35:13.098Z,21.60
2023-05-06T19:37:41.135Z,23.58
2023-05-06T19:40:10.085Z,27.10
2023-05-06T19:42:38.019Z,24.30
2023-05-06T19:45:11.671Z,22.10
2023-05-06T19:47:40.041Z,23.10
2023-05-06T19:50:09.276Z,24.17
2023-05-06T19:52:37.352Z,24.77
2023-05-06T19:55:05.845Z,23.17
2023-05-06T19:57:33.846Z,23.23
2023-05-06T20:00:05.395Z,22.35
2023-05-06T20:02:34.766Z,25.02
2023-05-06T20:05:02.738Z,22.73
2023-05-06T20:07:30.714Z,21.20
2023-05-06T20:09:58.652Z,22.83
2023-05-06T20:12:27.344Z,18.00
2023-05-06T20:14:56.013Z,22.20
2023-05-06T20:17:24.775Z,22.58
2023-05-06T20:19:57.309Z,24.38
2023-05-06T20:22:25.633Z,26.00
2023-05-06T20:24:54.023Z,24.92
2023-05-06T20:27:21.891Z,21.80
2023-05-06T20:29:51.647Z,23.53
2023-05-06T20:32:19.604Z,24.35
2023-05-06T20:34:47.552Z,24.80
2023-05-06T20:37:16.864Z,22.97
2023-05-06T20:39:44.765Z,27.48
2023-05-06T20:42:12.693Z,21.02
2023-05-06T20:44:40.610Z,23.95
2023-05-06T20:47:12.237Z,21.75
2023-05-06T20:49:40.186Z,21.98
2023-05-06T20:52:11.115Z,26.92
2023-05-06T20:54:40.468Z,22.50
2023-05-06T20:57:08.481Z,20.67
2023-05-06T20:59:36.571Z,22.48
2023-05-06T21:02:04.792Z,21.85
2023-05-06T21:04:33.195Z,24.58
2023-05-06T21:07:01.106Z,19.80
2023-05-06T21:09:29.847Z,25.92
2023-05-06T21:11:59.661Z,21.55
2023-05-06T21:14:28.140Z,19.85
2023-05-06T21:16:56.007Z,21.13
2023-05-06T21:19:23.920Z,19.58
2023-05-06T21:21:51.821Z,18.30
2023-05-06T21:24:19.780Z,20.58
2023-05-06T21:26:47.732Z,19.30
2023-05-06T21:29:17.020Z,20.10
2023-05-06T21:31:44.998Z,20.17
2023-05-06T21:34:12.952Z,20.83
2023-05-06T21:36:40.951Z,17.75
2023-05-06T21:39:11.737Z,20.00
2023-05-06T21:41:40.551Z,17.48
2023-05-06T21:44:10.114Z,18.80
2023-05-06T21:46:39.493Z,19.13
2023-05-06T21:49:07.529Z,20.65
2023-05-06T21:51:36.639Z,23.55
2023-05-06T21:54:04.776Z,18.45
2023-05-06T21:56:32.640Z,21.05
2023-05-06T21:59:00.582Z,21.17
2023-05-06T22:01:29.081Z,18.27
2023-05-06T22:03:58.604Z,17.60
2023-05-06T22:06:26.510Z,20.40
2023-05-06T22:08:54.359Z,23.77
2023-05-06T22:11:23.723Z,21.83
2023-05-06T22:13:51.836Z,22.88
2023-05-06T22:16:19.753Z,25.05
2023-05-06T22:18:47.705Z,25.90
2023-05-06T22:21:17.019Z,27.20
2023-05-06T22:23:44.942Z,25.15
2023-05-06T22:26:13.399Z,25.48
2023-05-06T22:28:41.251Z,26.25
2023-05-06T22:31:09.156Z,24.90
2023-05-06T22:33:37.176Z,24.10
2023-05-06T22:36:05.691Z,24.00
2023-05-06T22:38:34.934Z,26.43
2023-05-06T22:41:02.840Z,21.83
2023-05-06T22:43:30.732Z,22.23
2023-05-06T22:45:58.583Z,24.52
2023-05-06T22:48:26.528Z,23.70
2023-05-06T22:50:54.982Z,23.15
2023-05-06T22:53:22.850Z,20.83
2023-05-06T22:55:52.035Z,25.45
2023-05-06T22:58:20.035Z,23.20
2023-05-06T23:00:48.682Z,25.80
2023-05-06T23:03:18.252Z,24.45
2023-05-06T23:05:46.258Z,23.23
2023-05-06T23:08:14.188Z,23.45
2023-05-06T23:10:42.264Z,25.17
2023-05-06T23:13:12.099Z,27.10
2023-05-06T23:15:40.205Z,23.83
2023-05-06T23:18:08.241Z,24.58
2023-05-06T23:20:36.162Z,20.50
2023-05-06T23:23:04.094Z,23.23
2023-05-06T23:25:31.971Z,21.87
2023-05-06T23:27:59.858Z,22.25
2023-05-06T23:30:29.198Z,22.52
2023-05-06T23:32:57.136Z,19.20
2023-05-06T23:35:25.135Z,21.50
2023-05-06T23:37:53.073Z,22.15
2023-05-06T23:40:21.102Z,21.20
2023-05-06T23:42:49.026Z,22.10
2023-05-06T23:45:17.062Z,22.58
2023-05-06T23:47:46.431Z,21.63
2023-05-06T23:50:14.831Z,20.17
2023-05-06T23:52:42.940Z,20.60
2023-05-06T23:55:11.625Z,20.08
2023-05-06T23:57:39.669Z,18.42
